createdAt,value
2022-12-11T00:01:56.973Z,81.23
2022-12-11T00:06:50.537Z,83.80
2022-12-11T00:11:43.156Z,76.30
2022-12-11T00:16:37.254Z,88.20
2022-12-11T00:21:29.921Z,90.80
2022-12-11T00:26:22.588Z,80.20
2022-12-11T00:31:17.187Z,68.07
2022-12-11T00:36:14.678Z,67.20
2022-12-11T00:41:07.411Z,75.63
2022-12-11T00:46:00.800Z,70.37
2022-12-11T00:50:55.763Z,74.17
2022-12-11T00:55:52.676Z,67.80
2022-12-11T01:00:49.894Z,70.63
2022-12-11T01:05:42.905Z,73.60
2022-12-11T01:10:35.842Z,74.73
2022-12-11T01:15:31.092Z,74.57
2022-12-11T01:20:25.464Z,77.20
2022-12-11T01:25:19.197Z,72.13
2022-12-11T01:30:13.020Z,73.13
2022-12-11T01:35:08.763Z,80.77
2022-12-11T01:40:01.892Z,50.57
2022-12-11T01:45:27.933Z,65.10
2022-12-11T01:50:22.075Z,67.13
2022-12-11T01:55:15.019Z,82.87
2022-12-11T02:00:08.306Z,73.73
2022-12-11T02:05:06.913Z,67.77
2022-12-11T02:10:00.973Z,74.90
2022-12-11T02:14:57.811Z,74.07
2022-12-11T02:19:55.178Z,72.23
2022-12-11T02:24:54.369Z,68.83
2022-12-11T02:29:50.910Z,74.03
2022-12-11T02:34:46.226Z,65.03
2022-12-11T02:39:41.240Z,72.40
2022-12-11T02:44:35.423Z,71.67
2022-12-11T02:49:30.222Z,75.07
2022-12-11T02:54:25.026Z,73.97
2022-12-11T02:59:30.722Z,67.60
2022-12-11T03:04:25.039Z,70.90
2022-12-11T03:09:19.487Z,67.50
2022-12-11T03:14:13.123Z,73.03
2022-12-11T03:19:10.647Z,67.93
2022-12-11T03:24:06.778Z,63.17
2022-12-11T03:29:03.226Z,73.33
2022-12-11T03:33:58.074Z,69.40
2022-12-11T03:38:54.287Z,65.93
2022-12-11T03:43:48.304Z,65.60
2022-12-11T03:48:43.877Z,71.40
2022-12-11T03:53:37.313Z,73.43
2022-12-11T03:58:30.091Z,71.07
2022-12-11T04:03:22.847Z,66.60
2022-12-11T04:08:17.476Z,78.00
2022-12-11T04:13:10.768Z,69.47
2022-12-11T04:18:20.999Z,78.33
2022-12-11T04:23:32.262Z,73.87
2022-12-11T04:28:26.296Z,63.50
2022-12-11T04:33:18.884Z,72.80
2022-12-11T04:38:11.891Z,70.37
2022-12-11T04:43:04.583Z,75.13
2022-12-11T04:47:59.634Z,66.80
2022-12-11T04:52:55.167Z,72.63
2022-12-11T04:57:47.888Z,65.13
2022-12-11T05:02:41.399Z,73.60
2022-12-11T05:07:35.891Z,68.63
2022-12-11T05:12:28.943Z,72.03
2022-12-11T05:17:21.678Z,75.30
2022-12-11T05:22:14.304Z,73.03
2022-12-11T05:27:08.278Z,76.37
2022-12-11T05:32:00.935Z,79.13
2022-12-11T05:36:53.902Z,77.20
2022-12-11T05:41:46.536Z,77.53
2022-12-11T05:46:40.753Z,74.43
2022-12-11T05:51:35.064Z,82.70
2022-12-11T05:56:28.751Z,78.27
2022-12-11T06:01:22.342Z,87.97
2022-12-11T06:06:16.646Z,77.20
2022-12-11T06:11:09.332Z,90.17
2022-12-11T06:16:02.891Z,87.83
2022-12-11T06:20:55.655Z,77.47
2022-12-11T06:25:49.726Z,81.20
2022-12-11T06:30:42.323Z,96.67
2022-12-11T06:35:40.242Z,99.00
2022-12-11T06:40:34.543Z,98.30
2022-12-11T06:45:28.629Z,98.60
2022-12-11T06:50:21.308Z,105.07
2022-12-11T06:55:14.323Z,94.17
2022-12-11T07:00:07.719Z,105.43
2022-12-11T07:05:01.706Z,98.27
2022-12-11T07:09:54.312Z,104.13
2022-12-11T07:14:46.904Z,107.97
2022-12-11T07:19:40.747Z,102.30
2022-12-11T07:24:34.735Z,106.53
2022-12-11T07:29:27.438Z,116.43
2022-12-11T07:34:20.038Z,106.33
2022-12-11T07:39:13.058Z,113.30
2022-12-11T07:44:07.142Z,109.50
2022-12-11T07:49:00.854Z,111.83
2022-12-11T07:53:53.939Z,97.23
2022-12-11T07:58:46.607Z,122.00
2022-12-11T08:03:41.075Z,112.23
2022-12-11T08:08:33.891Z,89.10
2022-12-11T08:13:26.597Z,92.47
2022-12-11T08:18:19.300Z,94.60
2022-12-11T08:23:13.364Z,68.10
2022-12-11T08:28:06.149Z,72.40
2022-12-11T08:32:59.741Z,63.80
2022-12-11T08:37:52.714Z,57.33
2022-12-11T08:42:46.983Z,52.43
2022-12-11T08:47:40.107Z,53.50
2022-12-11T08:52:35.847Z,56.50
2022-12-11T08:57:29.062Z,46.10
2022-12-11T09:02:23.773Z,52.27
2022-12-11T09:07:17.053Z,49.60
2022-12-11T09:12:09.843Z,52.33
2022-12-11T09:17:02.665Z,53.93
2022-12-11T09:21:56.976Z,50.43
2022-12-11T09:26:49.981Z,49.10
2022-12-11T09:31:43.508Z,49.27
2022-12-11T09:36:36.447Z,59.53
2022-12-11T09:41:40.595Z,51.70
2022-12-11T09:46:34.280Z,56.47
2022-12-11T09:51:29.209Z,64.37
2022-12-11T09:56:23.913Z,45.87
2022-12-11T10:01:20.014Z,51.37
2022-12-11T10:06:16.414Z,47.90
2022-12-11T10:11:20.450Z,52.10
2022-12-11T10:16:15.998Z,48.90
2022-12-11T10:21:10.658Z,46.83
2022-12-11T10:26:04.870Z,53.23
2022-12-11T10:31:01.190Z,52.37
2022-12-11T10:35:54.853Z,45.80
2022-12-11T10:40:50.862Z,59.03
2022-12-11T10:45:51.015Z,47.63
2022-12-11T10:50:45.098Z,48.70
2022-12-11T10:55:40.660Z,51.47
2022-12-11T11:00:37.672Z,49.33
2022-12-11T11:05:32.028Z,47.20
2022-12-11T11:10:25.544Z,53.00
2022-12-11T11:15:20.184Z,48.70
2022-12-11T11:20:18.606Z,51.60
2022-12-11T11:25:17.394Z,48.87
2022-12-11T11:30:19.665Z,51.73
2022-12-11T11:35:18.046Z,47.80
2022-12-11T11:40:14.970Z,45.17
2022-12-11T11:45:16.998Z,48.20
2022-12-11T11:50:15.851Z,48.13
2022-12-11T11:55:20.214Z,44.50
2022-12-11T12:00:20.792Z,49.67
2022-12-11T12:05:13.946Z,46.30
2022-12-11T12:10:14.841Z,49.33
2022-12-11T12:15:19.227Z,44.80
2022-12-11T12:20:16.277Z,46.17
2022-12-11T12:25:17.223Z,47.80
2022-12-11T12:30:12.612Z,45.87
2022-12-11T12:35:11.612Z,46.53
2022-12-11T12:40:11.971Z,44.03
2022-12-11T12:45:12.260Z,51.00
2022-12-11T12:50:05.709Z,49.60
2022-12-11T12:55:16.152Z,51.20
2022-12-11T13:00:13.514Z,47.53
2022-12-11T13:05:08.786Z,47.10
2022-12-11T13:10:06.984Z,48.87
2022-12-11T13:15:00.680Z,58.30
2022-12-11T13:20:10.770Z,56.27
2022-12-11T13:25:17.900Z,45.20
2022-12-11T13:30:22.429Z,50.10
2022-12-11T13:35:17.430Z,50.60
2022-12-11T13:40:16.536Z,52.60
2022-12-11T13:45:18.830Z,54.17
2022-12-11T13:50:14.966Z,57.23
2022-12-11T13:55:18.018Z,52.00
2022-12-11T14:00:23.633Z,53.00
2022-12-11T14:05:16.487Z,56.37
2022-12-11T14:10:11.491Z,54.67
2022-12-11T14:15:06.424Z,51.83
2022-12-11T14:20:00.302Z,54.83
2022-12-11T14:24:54.296Z,53.83
2022-12-11T14:29:47.345Z,54.37
2022-12-11T14:34:44.948Z,55.17
2022-12-11T14:39:39.502Z,51.43
2022-12-11T14:44:34.221Z,57.70
2022-12-11T14:49:30.231Z,58.43
2022-12-11T14:54:26.532Z,63.90
2022-12-11T14:59:28.336Z,55.87
2022-12-11T15:04:23.883Z,52.20
2022-12-11T15:09:20.653Z,55.93
2022-12-11T15:14:14.955Z,61.67
2022-12-11T15:19:07.639Z,51.20
2022-12-11T15:24:02.672Z,58.27
2022-12-11T15:29:00.450Z,51.47
2022-12-11T15:33:54.746Z,62.67
2022-12-11T15:38:47.355Z,54.70
2022-12-11T15:43:40.043Z,53.97
2022-12-11T15:48:32.663Z,59.47
2022-12-11T15:53:26.614Z,58.10
2022-12-11T15:58:20.566Z,56.13
2022-12-11T16:03:14.039Z,60.73
2022-12-11T16:08:06.981Z,56.37
2022-12-11T16:13:02.611Z,59.00
2022-12-11T16:18:01.968Z,55.47
2022-12-11T16:22:54.561Z,72.67
2022-12-11T16:27:47.192Z,80.60
2022-12-11T16:32:41.091Z,66.57
2022-12-11T16:37:33.679Z,68.30
2022-12-11T16:42:26.270Z,64.30
2022-12-11T16:47:18.903Z,59.67
2022-12-11T16:52:15.361Z,65.47
2022-12-11T16:57:11.555Z,58.47
2022-12-11T17:02:04.082Z,64.97
2022-12-11T17:06:56.630Z,57.47
2022-12-11T17:11:50.574Z,60.53
2022-12-11T17:16:43.148Z,63.47
2022-12-11T17:21:35.931Z,52.90
2022-12-11T17:26:28.692Z,62.97
2022-12-11T17:31:22.681Z,55.40
2022-12-11T17:36:16.724Z,60.67
2022-12-11T17:41:12.161Z,58.27
2022-12-11T17:46:06.900Z,61.00
2022-12-11T17:51:03.449Z,61.97
2022-12-11T17:56:00.413Z,61.80
2022-12-11T18:00:54.479Z,54.97
2022-12-11T18:05:47.977Z,49.90
2022-12-11T18:10:41.969Z,62.10
2022-12-11T18:15:34.518Z,60.20
2022-12-11T18:20:27.429Z,60.27
2022-12-11T18:25:20.095Z,60.07
2022-12-11T18:30:15.143Z,68.73
2022-12-11T18:35:08.204Z,64.00
2022-12-11T18:40:00.821Z,64.97
2022-12-11T18:44:53.455Z,69.33
2022-12-11T18:49:47.598Z,84.37
2022-12-11T18:54:40.171Z,73.57
2022-12-11T18:59:32.732Z,75.17
2022-12-11T19:04:25.345Z,73.60
2022-12-11T19:09:19.267Z,262.53
2022-12-11T19:14:12.190Z,87.53
2022-12-11T19:19:06.787Z,127.80
2022-12-11T19:23:59.698Z,133.33
2022-12-11T19:28:53.918Z,98.90
2022-12-11T19:33:47.324Z,104.10
2022-12-11T19:38:41.795Z,90.93
2022-12-11T19:43:34.381Z,97.73
2022-12-11T19:48:28.341Z,99.80
2022-12-11T19:53:20.988Z,101.63
2022-12-11T19:58:13.699Z,89.97
2022-12-11T20:03:06.269Z,93.87
2022-12-11T20:08:27.355Z,89.80
2022-12-11T20:13:13.059Z,87.73
2022-12-11T20:18:05.762Z,92.13
2022-12-11T20:23:00.320Z,100.53
2022-12-11T20:27:53.015Z,90.13
2022-12-11T20:32:45.942Z,87.77
2022-12-11T20:37:38.462Z,98.60
2022-12-11T20:42:33.138Z,100.77
2022-12-11T20:47:25.815Z,92.87
2022-12-11T20:52:18.767Z,76.83
2022-12-11T20:57:11.410Z,72.20
2022-12-11T21:02:06.132Z,70.33
2022-12-11T21:07:00.216Z,75.70
2022-12-11T21:11:52.952Z,68.30
2022-12-11T21:16:46.120Z,68.43
2022-12-11T21:21:40.558Z,62.10
2022-12-11T21:26:33.370Z,68.07
2022-12-11T21:31:27.350Z,62.83
2022-12-11T21:36:20.087Z,57.80
2022-12-11T21:41:15.600Z,67.37
2022-12-11T21:46:11.658Z,65.57
2022-12-11T21:51:08.313Z,59.67
2022-12-11T21:56:00.899Z,70.23
2022-12-11T22:00:54.817Z,67.73
2022-12-11T22:05:47.390Z,62.70
2022-12-11T22:10:39.950Z,63.20
2022-12-11T22:15:32.526Z,59.97
2022-12-11T22:20:26.494Z,50.07
2022-12-11T22:25:19.140Z,54.60
2022-12-11T22:30:12.364Z,53.63
2022-12-11T22:35:05.217Z,49.90
2022-12-11T22:39:59.134Z,53.50
2022-12-11T22:44:51.798Z,54.27
2022-12-11T22:49:44.401Z,56.57
2022-12-11T22:54:38.811Z,61.87
2022-12-11T22:59:32.705Z,55.70
2022-12-11T23:04:25.305Z,57.37
2022-12-11T23:09:18.256Z,61.10
2022-12-11T23:14:14.313Z,76.70
2022-12-11T23:19:08.274Z,65.60
2022-12-11T23:24:01.401Z,65.93
2022-12-11T23:28:54.691Z,65.03
2022-12-11T23:33:47.281Z,71.30
2022-12-11T23:38:41.562Z,62.00
2022-12-11T23:43:35.026Z,59.00
2022-12-11T23:48:27.616Z,63.20
2022-12-11T23:53:20.237Z,52.57
2022-12-11T23:58:15.191Z,54.67
